sensor_id;sensor_type;location;lat;lon;timestamp;P1;durP1;ratioP1;P2;durP2;ratioP2
24467;SDS011;12634;50.852;5.676;2023-04-24T00:01:43;6.60;;;3.10;;
24467;SDS011;12634;50.852;5.676;2023-04-24T00:04:10;7.25;;;3.25;;
24467;SDS011;12634;50.852;5.676;2023-04-24T00:06:39;8.48;;;3.83;;
24467;SDS011;12634;50.852;5.676;2023-04-24T00:09:08;7.22;;;3.58;;
24467;SDS011;12634;50.852;5.676;2023-04-24T00:11:37;4.72;;;2.67;;
24467;SDS011;12634;50.852;5.676;2023-04-24T00:14:04;8.20;;;4.10;;
24467;SDS011;12634;50.852;5.676;2023-04-24T00:16:31;6.65;;;3.92;;
24467;SDS011;12634;50.852;5.676;2023-04-24T00:18:58;8.85;;;4.07;;
24467;SDS011;12634;50.852;5.676;2023-04-24T00:21:26;6.88;;;4.32;;
24467;SDS011;12634;50.852;5.676;2023-04-24T00:23:53;7.95;;;4.63;;
24467;SDS011;12634;50.852;5.676;2023-04-24T00:26:20;6.57;;;4.38;;
24467;SDS011;12634;50.852;5.676;2023-04-24T00:28:49;7.28;;;4.20;;
24467;SDS011;12634;50.852;5.676;2023-04-24T00:31:16;7.70;;;4.45;;
24467;SDS011;12634;50.852;5.676;2023-04-24T00:33:44;7.63;;;4.40;;
24467;SDS011;12634;50.852;5.676;2023-04-24T00:36:11;6.93;;;5.07;;
24467;SDS011;12634;50.852;5.676;2023-04-24T00:38:38;8.75;;;5.13;;
24467;SDS011;12634;50.852;5.676;2023-04-24T00:41:05;8.75;;;5.32;;
24467;SDS011;12634;50.852;5.676;2023-04-24T00:43:33;11.43;;;5.75;;
24467;SDS011;12634;50.852;5.676;2023-04-24T00:46:02;11.02;;;5.35;;
24467;SDS011;12634;50.852;5.676;2023-04-24T00:48:29;15.38;;;6.65;;
24467;SDS011;12634;50.852;5.676;2023-04-24T00:50:57;9.80;;;6.10;;
24467;SDS011;12634;50.852;5.676;2023-04-24T00:53:24;11.30;;;6.72;;
24467;SDS011;12634;50.852;5.676;2023-04-24T00:55:51;14.40;;;6.45;;
24467;SDS011;12634;50.852;5.676;2023-04-24T00:58:19;13.95;;;7.07;;
24467;SDS011;12634;50.852;5.676;2023-04-24T01:00:46;11.38;;;6.15;;
24467;SDS011;12634;50.852;5.676;2023-04-24T01:03:19;12.32;;;7.05;;
24467;SDS011;12634;50.852;5.676;2023-04-24T01:05:48;11.93;;;6.57;;
24467;SDS011;12634;50.852;5.676;2023-04-24T01:08:16;10.98;;;7.10;;
24467;SDS011;12634;50.852;5.676;2023-04-24T01:10:43;11.02;;;6.78;;
24467;SDS011;12634;50.852;5.676;2023-04-24T01:13:11;10.55;;;7.20;;
24467;SDS011;12634;50.852;5.676;2023-04-24T01:15:38;14.60;;;7.35;;
24467;SDS011;12634;50.852;5.676;2023-04-24T01:18:05;13.10;;;7.35;;
24467;SDS011;12634;50.852;5.676;2023-04-24T01:20:34;11.43;;;6.75;;
24467;SDS011;12634;50.852;5.676;2023-04-24T01:23:06;13.55;;;6.63;;
24467;SDS011;12634;50.852;5.676;2023-04-24T01:25:34;13.68;;;7.43;;
24467;SDS011;12634;50.852;5.676;2023-04-24T01:28:01;13.70;;;6.80;;
24467;SDS011;12634;50.852;5.676;2023-04-24T01:30:28;11.77;;;7.40;;
24467;SDS011;12634;50.852;5.676;2023-04-24T01:32:56;14.05;;;7.32;;
24467;SDS011;12634;50.852;5.676;2023-04-24T01:35:25;9.50;;;6.38;;
24467;SDS011;12634;50.852;5.676;2023-04-24T01:37:52;10.65;;;6.78;;
24467;SDS011;12634;50.852;5.676;2023-04-24T01:40:21;12.25;;;6.78;;
24467;SDS011;12634;50.852;5.676;2023-04-24T01:42:48;14.07;;;6.53;;
24467;SDS011;12634;50.852;5.676;2023-04-24T01:45:16;15.40;;;7.72;;
24467;SDS011;12634;50.852;5.676;2023-04-24T01:47:43;12.20;;;7.82;;
24467;SDS011;12634;50.852;5.676;2023-04-24T01:50:11;8.98;;;6.45;;
24467;SDS011;12634;50.852;5.676;2023-04-24T01:52:38;10.73;;;6.72;;
24467;SDS011;12634;50.852;5.676;2023-04-24T01:55:06;9.80;;;6.10;;
24467;SDS011;12634;50.852;5.676;2023-04-24T01:57:35;10.85;;;6.32;;
24467;SDS011;12634;50.852;5.676;2023-04-24T02:00:03;10.82;;;7.75;;
24467;SDS011;12634;50.852;5.676;2023-04-24T02:02:32;10.65;;;6.75;;
24467;SDS011;12634;50.852;5.676;2023-04-24T02:04:59;14.80;;;8.15;;
24467;SDS011;12634;50.852;5.676;2023-04-24T02:07:26;9.23;;;7.13;;
24467;SDS011;12634;50.852;5.676;2023-04-24T02:09:53;12.90;;;7.15;;
24467;SDS011;12634;50.852;5.676;2023-04-24T02:12:20;12.27;;;7.00;;
24467;SDS011;12634;50.852;5.676;2023-04-24T02:14:49;15.93;;;7.25;;
24467;SDS011;12634;50.852;5.676;2023-04-24T02:17:16;10.38;;;6.55;;
24467;SDS011;12634;50.852;5.676;2023-04-24T02:19:44;13.82;;;7.00;;
24467;SDS011;12634;50.852;5.676;2023-04-24T02:22:11;10.10;;;7.10;;
24467;SDS011;12634;50.852;5.676;2023-04-24T02:24:38;13.48;;;7.43;;
24467;SDS011;12634;50.852;5.676;2023-04-24T02:27:05;12.55;;;7.18;;
24467;SDS011;12634;50.852;5.676;2023-04-24T02:29:33;14.35;;;7.28;;
24467;SDS011;12634;50.852;5.676;2023-04-24T02:32:01;13.95;;;7.35;;
24467;SDS011;12634;50.852;5.676;2023-04-24T02:34:28;11.85;;;7.15;;
24467;SDS011;12634;50.852;5.676;2023-04-24T02:36:55;12.07;;;7.05;;
24467;SDS011;12634;50.852;5.676;2023-04-24T02:39:23;12.35;;;7.10;;
24467;SDS011;12634;50.852;5.676;2023-04-24T02:41:50;13.10;;;8.15;;
24467;SDS011;12634;50.852;5.676;2023-04-24T02:44:17;12.60;;;8.13;;
24467;SDS011;12634;50.852;5.676;2023-04-24T02:46:44;11.30;;;6.82;;
24467;SDS011;12634;50.852;5.676;2023-04-24T02:49:12;12.20;;;7.75;;
24467;SDS011;12634;50.852;5.676;2023-04-24T02:51:40;12.55;;;7.55;;
24467;SDS011;12634;50.852;5.676;2023-04-24T02:54:07;12.50;;;7.45;;
24467;SDS011;12634;50.852;5.676;2023-04-24T02:56:35;13.93;;;7.40;;
24467;SDS011;12634;50.852;5.676;2023-04-24T02:59:02;11.50;;;6.95;;
24467;SDS011;12634;50.852;5.676;2023-04-24T03:01:29;11.73;;;6.78;;
24467;SDS011;12634;50.852;5.676;2023-04-24T03:03:56;14.05;;;7.60;;
24467;SDS011;12634;50.852;5.676;2023-04-24T03:06:25;13.73;;;8.55;;
24467;SDS011;12634;50.852;5.676;2023-04-24T03:08:53;14.15;;;7.57;;
24467;SDS011;12634;50.852;5.676;2023-04-24T03:11:20;11.45;;;7.68;;
24467;SDS011;12634;50.852;5.676;2023-04-24T03:13:47;9.90;;;6.57;;
24467;SDS011;12634;50.852;5.676;2023-04-24T03:16:14;10.70;;;7.63;;
24467;SDS011;12634;50.852;5.676;2023-04-24T03:18:41;11.15;;;7.60;;
24467;SDS011;12634;50.852;5.676;2023-04-24T03:21:08;11.07;;;8.10;;
24467;SDS011;12634;50.852;5.676;2023-04-24T03:23:37;11.40;;;7.60;;
24467;SDS011;12634;50.852;5.676;2023-04-24T03:26:04;11.90;;;7.43;;
24467;SDS011;12634;50.852;5.676;2023-04-24T03:28:31;11.13;;;7.90;;
24467;SDS011;12634;50.852;5.676;2023-04-24T03:30:58;14.02;;;8.13;;
24467;SDS011;12634;50.852;5.676;2023-04-24T03:33:26;15.82;;;8.75;;
24467;SDS011;12634;50.852;5.676;2023-04-24T03:35:53;14.65;;;9.07;;
24467;SDS011;12634;50.852;5.676;2023-04-24T03:38:20;10.88;;;8.25;;
24467;SDS011;12634;50.852;5.676;2023-04-24T03:40:48;13.45;;;8.35;;
24467;SDS011;12634;50.852;5.676;2023-04-24T03:43:15;13.73;;;9.30;;
24467;SDS011;12634;50.852;5.676;2023-04-24T03:45:42;12.95;;;8.45;;
24467;SDS011;12634;50.852;5.676;2023-04-24T03:48:09;13.43;;;7.45;;
24467;SDS011;12634;50.852;5.676;2023-04-24T03:50:37;12.13;;;8.30;;
24467;SDS011;12634;50.852;5.676;2023-04-24T03:53:04;16.33;;;8.85;;
24467;SDS011;12634;50.852;5.676;2023-04-24T03:55:31;10.73;;;7.88;;
24467;SDS011;12634;50.852;5.676;2023-04-24T03:57:59;10.85;;;8.15;;
24467;SDS011;12634;50.852;5.676;2023-04-24T04:00:28;9.02;;;7.60;;
24467;SDS011;12634;50.852;5.676;2023-04-24T04:02:58;12.50;;;7.50;;
24467;SDS011;12634;50.852;5.676;2023-04-24T04:05:25;10.88;;;7.72;;
24467;SDS011;12634;50.852;5.676;2023-04-24T04:07:52;12.40;;;7.13;;
24467;SDS011;12634;50.852;5.676;2023-04-24T04:10:19;12.63;;;7.43;;
24467;SDS011;12634;50.852;5.676;2023-04-24T04:12:47;11.55;;;7.15;;
24467;SDS011;12634;50.852;5.676;2023-04-24T04:15:15;10.98;;;7.55;;
24467;SDS011;12634;50.852;5.676;2023-04-24T04:17:42;12.05;;;8.18;;
24467;SDS011;12634;50.852;5.676;2023-04-24T04:20:10;9.70;;;6.55;;
24467;SDS011;12634;50.852;5.676;2023-04-24T04:22:38;11.13;;;7.63;;
24467;SDS011;12634;50.852;5.676;2023-04-24T04:25:05;11.68;;;7.57;;
24467;SDS011;12634;50.852;5.676;2023-04-24T04:27:33;9.95;;;7.07;;
24467;SDS011;12634;50.852;5.676;2023-04-24T04:30:01;13.95;;;7.25;;
24467;SDS011;12634;50.852;5.676;2023-04-24T04:32:31;11.85;;;6.88;;
24467;SDS011;12634;50.852;5.676;2023-04-24T04:34:59;9.15;;;7.47;;
24467;SDS011;12634;50.852;5.676;2023-04-24T04:37:28;10.90;;;6.75;;
24467;SDS011;12634;50.852;5.676;2023-04-24T04:39:56;10.40;;;7.53;;
24467;SDS011;12634;50.852;5.676;2023-04-24T04:42:23;10.90;;;7.32;;
24467;SDS011;12634;50.852;5.676;2023-04-24T04:44:52;10.55;;;7.30;;
24467;SDS011;12634;50.852;5.676;2023-04-24T04:47:20;10.07;;;6.43;;
24467;SDS011;12634;50.852;5.676;2023-04-24T04:49:49;9.45;;;6.97;;
24467;SDS011;12634;50.852;5.676;2023-04-24T04:52:17;7.72;;;6.13;;
24467;SDS011;12634;50.852;5.676;2023-04-24T04:54:44;13.80;;;6.15;;
24467;SDS011;12634;50.852;5.676;2023-04-24T04:57:11;10.75;;;6.10;;
24467;SDS011;12634;50.852;5.676;2023-04-24T04:59:38;8.30;;;6.40;;
24467;SDS011;12634;50.852;5.676;2023-04-24T05:02:06;9.15;;;6.50;;
24467;SDS011;12634;50.852;5.676;2023-04-24T05:04:33;8.65;;;6.18;;
24467;SDS011;12634;50.852;5.676;2023-04-24T05:07:01;7.75;;;5.65;;
24467;SDS011;12634;50.852;5.676;2023-04-24T05:09:29;9.05;;;5.18;;
24467;SDS011;12634;50.852;5.676;2023-04-24T05:11:56;8.27;;;5.95;;
24467;SDS011;12634;50.852;5.676;2023-04-24T05:14:23;9.27;;;5.72;;
24467;SDS011;12634;50.852;5.676;2023-04-24T05:16:50;9.80;;;5.43;;
24467;SDS011;12634;50.852;5.676;2023-04-24T05:19:17;7.32;;;5.63;;
24467;SDS011;12634;50.852;5.676;2023-04-24T05:21:44;8.60;;;5.78;;
24467;SDS011;12634;50.852;5.676;2023-04-24T05:24:14;5.93;;;3.75;;
24467;SDS011;12634;50.852;5.676;2023-04-24T05:26:41;6.82;;;3.60;;
24467;SDS011;12634;50.852;5.676;2023-04-24T05:29:08;8.68;;;5.20;;
24467;SDS011;12634;50.852;5.676;2023-04-24T05:31:35;7.05;;;4.35;;
24467;SDS011;12634;50.852;5.676;2023-04-24T05:34:02;9.50;;;5.53;;
24467;SDS011;12634;50.852;5.676;2023-04-24T05:36:30;7.13;;;5.35;;
24467;SDS011;12634;50.852;5.676;2023-04-24T05:38:57;6.95;;;4.88;;
24467;SDS011;12634;50.852;5.676;2023-04-24T05:41:26;7.90;;;6.28;;
24467;SDS011;12634;50.852;5.676;2023-04-24T05:43:53;10.60;;;6.20;;
24467;SDS011;12634;50.852;5.676;2023-04-24T05:46:20;7.15;;;5.35;;
24467;SDS011;12634;50.852;5.676;2023-04-24T05:48:47;7.38;;;5.25;;
24467;SDS011;12634;50.852;5.676;2023-04-24T05:51:14;8.48;;;6.82;;
24467;SDS011;12634;50.852;5.676;2023-04-24T05:53:41;10.65;;;6.25;;
24467;SDS011;12634;50.852;5.676;2023-04-24T05:56:08;7.03;;;5.40;;
24467;SDS011;12634;50.852;5.676;2023-04-24T05:58:37;5.43;;;3.53;;
24467;SDS011;12634;50.852;5.676;2023-04-24T06:01:04;4.05;;;3.35;;
24467;SDS011;12634;50.852;5.676;2023-04-24T06:03:31;6.85;;;4.90;;
24467;SDS011;12634;50.852;5.676;2023-04-24T06:05:59;7.05;;;4.57;;
24467;SDS011;12634;50.852;5.676;2023-04-24T06:08:26;5.80;;;3.72;;
24467;SDS011;12634;50.852;5.676;2023-04-24T06:10:53;3.15;;;2.22;;
24467;SDS011;12634;50.852;5.676;2023-04-24T06:13:20;4.43;;;2.50;;
24467;SDS011;12634;50.852;5.676;2023-04-24T06:15:48;4.43;;;3.10;;
24467;SDS011;12634;50.852;5.676;2023-04-24T06:18:16;4.28;;;2.50;;
24467;SDS011;12634;50.852;5.676;2023-04-24T06:20:43;3.38;;;2.35;;
24467;SDS011;12634;50.852;5.676;2023-04-24T06:23:11;4.55;;;3.13;;
24467;SDS011;12634;50.852;5.676;2023-04-24T06:25:38;4.35;;;2.55;;
24467;SDS011;12634;50.852;5.676;2023-04-24T06:28:05;4.65;;;3.05;;
24467;SDS011;12634;50.852;5.676;2023-04-24T06:30:32;4.40;;;2.72;;
24467;SDS011;12634;50.852;5.676;2023-04-24T06:33:01;4.65;;;2.72;;
24467;SDS011;12634;50.852;5.676;2023-04-24T06:35:28;5.55;;;3.03;;
24467;SDS011;12634;50.852;5.676;2023-04-24T06:37:55;6.28;;;3.15;;
24467;SDS011;12634;50.852;5.676;2023-04-24T06:40:22;6.32;;;4.05;;
24467;SDS011;12634;50.852;5.676;2023-04-24T06:42:50;3.53;;;2.55;;
24467;SDS011;12634;50.852;5.676;2023-04-24T06:45:17;6.90;;;3.10;;
24467;SDS011;12634;50.852;5.676;2023-04-24T06:47:45;6.72;;;3.45;;
24467;SDS011;12634;50.852;5.676;2023-04-24T06:50:14;6.68;;;3.40;;
24467;SDS011;12634;50.852;5.676;2023-04-24T06:52:41;7.82;;;3.00;;
24467;SDS011;12634;50.852;5.676;2023-04-24T06:55:09;4.55;;;3.28;;
24467;SDS011;12634;50.852;5.676;2023-04-24T06:57:36;8.40;;;4.57;;
24467;SDS011;12634;50.852;5.676;2023-04-24T07:00:04;7.90;;;4.25;;
24467;SDS011;12634;50.852;5.676;2023-04-24T07:02:34;7.72;;;4.55;;
24467;SDS011;12634;50.852;5.676;2023-04-24T07:05:02;6.50;;;4.03;;
24467;SDS011;12634;50.852;5.676;2023-04-24T07:07:31;8.60;;;3.88;;
24467;SDS011;12634;50.852;5.676;2023-04-24T07:09:59;7.45;;;4.30;;
24467;SDS011;12634;50.852;5.676;2023-04-24T07:12:26;5.90;;;3.47;;
24467;SDS011;12634;50.852;5.676;2023-04-24T07:14:53;6.43;;;3.95;;
24467;SDS011;12634;50.852;5.676;2023-04-24T07:17:20;6.43;;;3.25;;
24467;SDS011;12634;50.852;5.676;2023-04-24T07:19:48;8.40;;;4.75;;
24467;SDS011;12634;50.852;5.676;2023-04-24T07:22:15;7.10;;;4.78;;
24467;SDS011;12634;50.852;5.676;2023-04-24T07:24:44;9.43;;;5.82;;
24467;SDS011;12634;50.852;5.676;2023-04-24T07:27:11;7.47;;;4.50;;
24467;SDS011;12634;50.852;5.676;2023-04-24T07:29:39;9.30;;;5.38;;
24467;SDS011;12634;50.852;5.676;2023-04-24T07:32:07;9.82;;;5.47;;
24467;SDS011;12634;50.852;5.676;2023-04-24T07:34:34;9.60;;;5.47;;
24467;SDS011;12634;50.852;5.676;2023-04-24T07:37:01;8.27;;;4.95;;
24467;SDS011;12634;50.852;5.676;2023-04-24T07:39:28;8.65;;;6.00;;
24467;SDS011;12634;50.852;5.676;2023-04-24T07:41:57;9.52;;;6.20;;
24467;SDS011;12634;50.852;5.676;2023-04-24T07:44:27;12.43;;;6.68;;
24467;SDS011;12634;50.852;5.676;2023-04-24T07:46:54;12.10;;;6.80;;
24467;SDS011;12634;50.852;5.676;2023-04-24T07:49:22;9.55;;;6.60;;
24467;SDS011;12634;50.852;5.676;2023-04-24T07:51:50;10.25;;;6.00;;
24467;SDS011;12634;50.852;5.676;2023-04-24T07:54:17;11.50;;;8.40;;
24467;SDS011;12634;50.852;5.676;2023-04-24T07:56:44;11.45;;;7.22;;
24467;SDS011;12634;50.852;5.676;2023-04-24T07:59:13;10.20;;;7.28;;
24467;SDS011;12634;50.852;5.676;2023-04-24T08:01:40;13.02;;;8.23;;
24467;SDS011;12634;50.852;5.676;2023-04-24T08:04:07;9.50;;;6.32;;
24467;SDS011;12634;50.852;5.676;2023-04-24T08:06:34;9.00;;;5.68;;
24467;SDS011;12634;50.852;5.676;2023-04-24T08:09:01;8.60;;;5.93;;
24467;SDS011;12634;50.852;5.676;2023-04-24T08:11:29;10.23;;;5.82;;
24467;SDS011;12634;50.852;5.676;2023-04-24T08:13:56;10.02;;;5.53;;
24467;SDS011;12634;50.852;5.676;2023-04-24T08:16:25;8.23;;;6.50;;
24467;SDS011;12634;50.852;5.676;2023-04-24T08:18:52;9.05;;;6.85;;
24467;SDS011;12634;50.852;5.676;2023-04-24T08:21:20;8.30;;;6.18;;
24467;SDS011;12634;50.852;5.676;2023-04-24T08:23:47;10.77;;;6.47;;
24467;SDS011;12634;50.852;5.676;2023-04-24T08:26:14;9.10;;;6.40;;
24467;SDS011;12634;50.852;5.676;2023-04-24T08:28:41;11.70;;;7.63;;
24467;SDS011;12634;50.852;5.676;2023-04-24T08:31:09;11.07;;;7.68;;
24467;SDS011;12634;50.852;5.676;2023-04-24T08:33:37;11.55;;;7.18;;
24467;SDS011;12634;50.852;5.676;2023-04-24T08:36:06;12.48;;;7.70;;
24467;SDS011;12634;50.852;5.676;2023-04-24T08:38:33;11.45;;;7.70;;
24467;SDS011;12634;50.852;5.676;2023-04-24T08:41:01;12.00;;;7.22;;
24467;SDS011;12634;50.852;5.676;2023-04-24T08:43:29;12.45;;;7.47;;
24467;SDS011;12634;50.852;5.676;2023-04-24T08:45:59;10.35;;;6.72;;
24467;SDS011;12634;50.852;5.676;2023-04-24T08:48:26;16.60;;;7.28;;
24467;SDS011;12634;50.852;5.676;2023-04-24T08:50:56;14.02;;;8.02;;
24467;SDS011;12634;50.852;5.676;2023-04-24T08:53:24;12.13;;;7.20;;
24467;SDS011;12634;50.852;5.676;2023-04-24T08:55:52;15.05;;;7.63;;
24467;SDS011;12634;50.852;5.676;2023-04-24T08:58:21;9.63;;;5.25;;
24467;SDS011;12634;50.852;5.676;2023-04-24T09:00:51;13.63;;;7.15;;
24467;SDS011;12634;50.852;5.676;2023-04-24T09:03:20;12.30;;;5.43;;
24467;SDS011;12634;50.852;5.676;2023-04-24T09:05:48;13.55;;;7.15;;
24467;SDS011;12634;50.852;5.676;2023-04-24T09:08:17;8.73;;;5.30;;
24467;SDS011;12634;50.852;5.676;2023-04-24T09:10:45;8.10;;;4.47;;
24467;SDS011;12634;50.852;5.676;2023-04-24T09:13:12;11.30;;;5.22;;
24467;SDS011;12634;50.852;5.676;2023-04-24T09:15:40;11.50;;;5.07;;
24467;SDS011;12634;50.852;5.676;2023-04-24T09:18:07;9.00;;;4.65;;
24467;SDS011;12634;50.852;5.676;2023-04-24T09:20:34;9.65;;;5.03;;
24467;SDS011;12634;50.852;5.676;2023-04-24T09:23:23;6.30;;;3.72;;
24467;SDS011;12634;50.852;5.676;2023-04-24T09:25:54;7.13;;;3.88;;
24467;SDS011;12634;50.852;5.676;2023-04-24T09:28:24;8.85;;;4.50;;
24467;SDS011;12634;50.852;5.676;2023-04-24T09:31:02;10.05;;;4.07;;
24467;SDS011;12634;50.852;5.676;2023-04-24T09:33:30;7.50;;;3.08;;
24467;SDS011;12634;50.852;5.676;2023-04-24T09:35:58;7.18;;;2.78;;
24467;SDS011;12634;50.852;5.676;2023-04-24T09:38:33;7.57;;;3.20;;
24467;SDS011;12634;50.852;5.676;2023-04-24T09:41:02;8.13;;;3.20;;
24467;SDS011;12634;50.852;5.676;2023-04-24T09:43:31;5.93;;;2.88;;
24467;SDS011;12634;50.852;5.676;2023-04-24T09:46:00;6.07;;;3.10;;
24467;SDS011;12634;50.852;5.676;2023-04-24T09:48:32;6.35;;;2.88;;
24467;SDS011;12634;50.852;5.676;2023-04-24T09:51:02;5.40;;;3.13;;
24467;SDS011;12634;50.852;5.676;2023-04-24T09:53:33;10.00;;;3.70;;
24467;SDS011;12634;50.852;5.676;2023-04-24T09:56:06;7.68;;;3.35;;
24467;SDS011;12634;50.852;5.676;2023-04-24T09:58:35;7.78;;;3.17;;
24467;SDS011;12634;50.852;5.676;2023-04-24T10:01:03;9.90;;;3.10;;
24467;SDS011;12634;50.852;5.676;2023-04-24T10:03:31;8.13;;;3.55;;
24467;SDS011;12634;50.852;5.676;2023-04-24T10:05:58;8.90;;;3.20;;
24467;SDS011;12634;50.852;5.676;2023-04-24T10:08:26;12.88;;;4.28;;
24467;SDS011;12634;50.852;5.676;2023-04-24T10:11:00;8.45;;;3.58;;
24467;SDS011;12634;50.852;5.676;2023-04-24T10:13:28;8.63;;;3.20;;
24467;SDS011;12634;50.852;5.676;2023-04-24T10:15:55;10.45;;;3.58;;
24467;SDS011;12634;50.852;5.676;2023-04-24T10:18:25;8.32;;;3.58;;
24467;SDS011;12634;50.852;5.676;2023-04-24T10:20:53;9.73;;;3.75;;
24467;SDS011;12634;50.852;5.676;2023-04-24T10:23:21;7.50;;;3.45;;
24467;SDS011;12634;50.852;5.676;2023-04-24T10:25:48;11.30;;;3.15;;
24467;SDS011;12634;50.852;5.676;2023-04-24T10:28:20;10.38;;;3.58;;
24467;SDS011;12634;50.852;5.676;2023-04-24T10:30:47;8.43;;;3.72;;
24467;SDS011;12634;50.852;5.676;2023-04-24T10:33:15;8.68;;;3.90;;
24467;SDS011;12634;50.852;5.676;2023-04-24T10:35:45;10.05;;;4.15;;
24467;SDS011;12634;50.852;5.676;2023-04-24T10:38:17;8.48;;;3.63;;
24467;SDS011;12634;50.852;5.676;2023-04-24T10:40:51;9.85;;;4.15;;
24467;SDS011;12634;50.852;5.676;2023-04-24T10:43:24;10.45;;;4.57;;
24467;SDS011;12634;50.852;5.676;2023-04-24T10:46:01;9.05;;;3.35;;
24467;SDS011;12634;50.852;5.676;2023-04-24T10:48:29;8.52;;;3.40;;
24467;SDS011;12634;50.852;5.676;2023-04-24T10:50:57;9.20;;;3.40;;
24467;SDS011;12634;50.852;5.676;2023-04-24T10:53:27;12.27;;;4.00;;
24467;SDS011;12634;50.852;5.676;2023-04-24T10:55:57;6.75;;;3.17;;
24467;SDS011;12634;50.852;5.676;2023-04-24T10:58:36;6.75;;;3.10;;
24467;SDS011;12634;50.852;5.676;2023-04-24T11:01:06;7.45;;;2.55;;
24467;SDS011;12634;50.852;5.676;2023-04-24T11:03:33;9.93;;;3.45;;
24467;SDS011;12634;50.852;5.676;2023-04-24T11:08:37;7.88;;;3.08;;
24467;SDS011;12634;50.852;5.676;2023-04-24T11:11:09;7.85;;;3.67;;
24467;SDS011;12634;50.852;5.676;2023-04-24T11:16:32;8.93;;;3.25;;
24467;SDS011;12634;50.852;5.676;2023-04-24T11:19:01;9.70;;;3.08;;
24467;SDS011;12634;50.852;5.676;2023-04-24T11:21:40;7.40;;;3.20;;
24467;SDS011;12634;50.852;5.676;2023-04-24T11:24:24;7.63;;;2.80;;
24467;SDS011;12634;50.852;5.676;2023-04-24T11:26:53;7.47;;;3.13;;
24467;SDS011;12634;50.852;5.676;2023-04-24T11:29:24;8.18;;;2.92;;
24467;SDS011;12634;50.852;5.676;2023-04-24T11:32:14;7.25;;;3.00;;
24467;SDS011;12634;50.852;5.676;2023-04-24T11:34:46;7.72;;;2.92;;
24467;SDS011;12634;50.852;5.676;2023-04-24T11:37:13;7.00;;;2.95;;
24467;SDS011;12634;50.852;5.676;2023-04-24T11:39:41;10.77;;;2.80;;
24467;SDS011;12634;50.852;5.676;2023-04-24T11:42:08;6.05;;;3.00;;
24467;SDS011;12634;50.852;5.676;2023-04-24T11:44:37;8.02;;;3.22;;
24467;SDS011;12634;50.852;5.676;2023-04-24T11:47:06;4.85;;;2.40;;
24467;SDS011;12634;50.852;5.676;2023-04-24T11:49:35;7.85;;;2.70;;
24467;SDS011;12634;50.852;5.676;2023-04-24T11:52:03;10.32;;;2.97;;
24467;SDS011;12634;50.852;5.676;2023-04-24T11:54:31;6.95;;;2.67;;
24467;SDS011;12634;50.852;5.676;2023-04-24T11:56:58;3.92;;;2.13;;
24467;SDS011;12634;50.852;5.676;2023-04-24T11:59:25;6.53;;;2.67;;
24467;SDS011;12634;50.852;5.676;2023-04-24T12:01:54;6.75;;;2.30;;
24467;SDS011;12634;50.852;5.676;2023-04-24T12:04:21;5.72;;;2.38;;
24467;SDS011;12634;50.852;5.676;2023-04-24T12:09:39;9.02;;;2.80;;
24467;SDS011;12634;50.852;5.676;2023-04-24T12:12:08;6.60;;;2.20;;
24467;SDS011;12634;50.852;5.676;2023-04-24T12:14:41;5.95;;;2.70;;
24467;SDS011;12634;50.852;5.676;2023-04-24T12:17:11;5.80;;;2.60;;
24467;SDS011;12634;50.852;5.676;2023-04-24T12:19:38;6.13;;;2.60;;
24467;SDS011;12634;50.852;5.676;2023-04-24T12:22:11;6.97;;;2.75;;
24467;SDS011;12634;50.852;5.676;2023-04-24T12:27:24;6.75;;;2.72;;
24467;SDS011;12634;50.852;5.676;2023-04-24T12:29:52;8.57;;;2.85;;
24467;SDS011;12634;50.852;5.676;2023-04-24T12:32:21;4.60;;;2.45;;
24467;SDS011;12634;50.852;5.676;2023-04-24T12:34:49;7.53;;;2.92;;
24467;SDS011;12634;50.852;5.676;2023-04-24T12:37:17;8.32;;;2.75;;
24467;SDS011;12634;50.852;5.676;2023-04-24T12:39:44;7.97;;;2.72;;
24467;SDS011;12634;50.852;5.676;2023-04-24T12:44:56;8.00;;;2.78;;
24467;SDS011;12634;50.852;5.676;2023-04-24T12:47:26;5.88;;;2.30;;
24467;SDS011;12634;50.852;5.676;2023-04-24T12:49:54;4.97;;;2.55;;
24467;SDS011;12634;50.852;5.676;2023-04-24T12:52:21;4.90;;;2.65;;
24467;SDS011;12634;50.852;5.676;2023-04-24T12:54:51;8.25;;;2.67;;
24467;SDS011;12634;50.852;5.676;2023-04-24T12:57:20;3.85;;;2.30;;
24467;SDS011;12634;50.852;5.676;2023-04-24T12:59:47;5.45;;;2.58;;
24467;SDS011;12634;50.852;5.676;2023-04-24T13:02:14;5.57;;;2.30;;
24467;SDS011;12634;50.852;5.676;2023-04-24T13:04:45;4.22;;;2.42;;
24467;SDS011;12634;50.852;5.676;2023-04-24T13:07:12;5.50;;;2.38;;
24467;SDS011;12634;50.852;5.676;2023-04-24T13:09:40;5.22;;;2.53;;
24467;SDS011;12634;50.852;5.676;2023-04-24T13:12:07;5.40;;;2.20;;
24467;SDS011;12634;50.852;5.676;2023-04-24T13:14:35;7.88;;;3.00;;
24467;SDS011;12634;50.852;5.676;2023-04-24T13:17:02;5.78;;;2.53;;
24467;SDS011;12634;50.852;5.676;2023-04-24T13:19:34;4.63;;;2.78;;
24467;SDS011;12634;50.852;5.676;2023-04-24T13:22:04;7.72;;;2.90;;
24467;SDS011;12634;50.852;5.676;2023-04-24T13:24:31;5.07;;;2.33;;
24467;SDS011;12634;50.852;5.676;2023-04-24T13:26:58;6.07;;;2.60;;
24467;SDS011;12634;50.852;5.676;2023-04-24T13:29:27;6.03;;;2.92;;
24467;SDS011;12634;50.852;5.676;2023-04-24T13:31:55;7.07;;;3.05;;
24467;SDS011;12634;50.852;5.676;2023-04-24T13:34:22;4.78;;;2.83;;
24467;SDS011;12634;50.852;5.676;2023-04-24T13:36:50;6.90;;;2.72;;
24467;SDS011;12634;50.852;5.676;2023-04-24T13:39:19;6.65;;;2.78;;
24467;SDS011;12634;50.852;5.676;2023-04-24T13:41:46;5.25;;;2.53;;
24467;SDS011;12634;50.852;5.676;2023-04-24T13:44:14;6.30;;;2.58;;
24467;SDS011;12634;50.852;5.676;2023-04-24T13:46:42;6.53;;;2.90;;
24467;SDS011;12634;50.852;5.676;2023-04-24T13:49:10;5.28;;;2.70;;
24467;SDS011;12634;50.852;5.676;2023-04-24T13:51:37;4.65;;;2.72;;
24467;SDS011;12634;50.852;5.676;2023-04-24T13:54:05;3.33;;;2.10;;
24467;SDS011;12634;50.852;5.676;2023-04-24T13:56:34;4.30;;;2.20;;
24467;SDS011;12634;50.852;5.676;2023-04-24T13:59:01;4.93;;;2.40;;
24467;SDS011;12634;50.852;5.676;2023-04-24T14:01:28;4.25;;;2.45;;
24467;SDS011;12634;50.852;5.676;2023-04-24T14:03:55;5.75;;;2.45;;
24467;SDS011;12634;50.852;5.676;2023-04-24T14:06:23;4.68;;;2.30;;
24467;SDS011;12634;50.852;5.676;2023-04-24T14:08:51;4.97;;;2.00;;
24467;SDS011;12634;50.852;5.676;2023-04-24T14:11:18;6.00;;;2.10;;
24467;SDS011;12634;50.852;5.676;2023-04-24T14:13:47;4.82;;;2.33;;
24467;SDS011;12634;50.852;5.676;2023-04-24T14:16:15;6.57;;;2.72;;
24467;SDS011;12634;50.852;5.676;2023-04-24T14:18:42;4.90;;;2.10;;
24467;SDS011;12634;50.852;5.676;2023-04-24T14:21:09;5.50;;;2.38;;
24467;SDS011;12634;50.852;5.676;2023-04-24T14:23:36;3.85;;;1.83;;
24467;SDS011;12634;50.852;5.676;2023-04-24T14:26:03;5.30;;;2.40;;
24467;SDS011;12634;50.852;5.676;2023-04-24T14:28:31;4.97;;;2.40;;
24467;SDS011;12634;50.852;5.676;2023-04-24T14:31:00;5.47;;;2.10;;
24467;SDS011;12634;50.852;5.676;2023-04-24T14:33:27;5.05;;;2.13;;
24467;SDS011;12634;50.852;5.676;2023-04-24T14:35:54;5.50;;;2.45;;
24467;SDS011;12634;50.852;5.676;2023-04-24T14:38:21;3.83;;;1.92;;
24467;SDS011;12634;50.852;5.676;2023-04-24T14:40:48;4.13;;;2.30;;
24467;SDS011;12634;50.852;5.676;2023-04-24T14:43:15;6.30;;;2.53;;
24467;SDS011;12634;50.852;5.676;2023-04-24T14:45:42;4.53;;;2.40;;
24467;SDS011;12634;50.852;5.676;2023-04-24T14:48:11;5.82;;;2.35;;
24467;SDS011;12634;50.852;5.676;2023-04-24T14:50:38;5.75;;;2.65;;
24467;SDS011;12634;50.852;5.676;2023-04-24T14:53:05;6.57;;;2.65;;
24467;SDS011;12634;50.852;5.676;2023-04-24T14:55:32;5.60;;;2.40;;
24467;SDS011;12634;50.852;5.676;2023-04-24T14:58:01;8.57;;;3.00;;
24467;SDS011;12634;50.852;5.676;2023-04-24T15:00:28;7.43;;;2.40;;
24467;SDS011;12634;50.852;5.676;2023-04-24T15:02:56;5.93;;;2.70;;